<?xml version="1.0" encoding="UTF-8"?>
<gpx xmlns:xsi="http://www.w3.org/2001/XMLSchema-instance" xmlns="http://www.topografix.com/GPX/1/1" xsi:schemaLocation="http://www.topografix.com/GPX/1/1 http://www.topografix.com/GPX/1/1/gpx.xsd http://www.garmin.com/xmlschemas/GpxExtensions/v3 http://www.garmin.com/xmlschemas/GpxExtensionsv3.xsd http://www.garmin.com/xmlschemas/TrackPointExtension/v1 http://www.garmin.com/xmlschemas/TrackPointExtensionv1.xsd" xmlns:gpxtpx="http://www.garmin.com/xmlschemas/TrackPointExtension/v1" xmlns:gpxx="http://www.garmin.com/xmlschemas/GpxExtensions/v3" version="1.1" creator="https://gpx.studio">
<metadata>
    <name>Tour Schwartenberg</name>
    <author>
        <name>Andy Morgenstern</name>
        <link href="https://www.goldhuebel.de"></link>
    </author>
</metadata>
<wpt lat="50.680797145321655" lon="13.483400344848635">
    <ele>617.4</ele>
    <name>Ferienhotel Goldhübel</name>
    <cmt></cmt>
    <desc></desc>
    <sym> </sym>
</wpt>
<wpt lat="50.64635832" lon="13.48552465">
    <ele>754.0</ele>
    <name>Waldgasthof Bad Einsiedel</name>
    <cmt></cmt>
    <desc></desc>
    <sym> </sym>
</wpt>
<wpt lat="50.65898338" lon="13.46609473">
    <ele>779.0</ele>
    <name>Schwartenbergbaude</name>
    <cmt></cmt>
    <desc></desc>
    <sym> </sym>
</wpt>
<wpt lat="50.66055447499132" lon="13.500555753707886">
    <ele>743.5</ele>
    <name>Rastplatz am Teich</name>
    <cmt></cmt>
    <desc></desc>
    <sym> </sym>
</wpt>
<wpt lat="50.66781074538019" lon="13.495223522186281">
    <ele>741.9</ele>
    <name>Schutzhütte</name>
    <cmt></cmt>
    <desc></desc>
    <sym> </sym>
</wpt>
<wpt lat="50.66415554783204" lon="13.486077189445496">
    <ele>637.7</ele>
    <name>Rastplatz Frauenbach</name>
    <cmt></cmt>
    <desc></desc>
    <sym> </sym>
</wpt>
<wpt lat="50.66403313629234" lon="13.463997244834902">
    <ele>682.2</ele>
    <name>Rastplatz Biermannkreuzung</name>
    <cmt></cmt>
    <desc></desc>
    <sym> </sym>
</wpt>
<trk>
    <name>Tour Schwartenberg</name>
    <type>Cycling</type>
    <extensions>
        <gpxx:TrackExtension>
        <gpxx:Extensions>
        <color>#00ccff</color>
        <opacity>0.7</opacity>
        <weight>3</weight>
        </gpxx:Extensions>
        </gpxx:TrackExtension>
    </extensions>
    <trkseg>
    <trkpt lat="50.6801717" lon="13.4858036">
        <ele>635.0</ele>
        <time>2010-01-01T00:00:00.000Z</time>
    </trkpt>
    <trkpt lat="50.67950206" lon="13.48634541">
        <ele>641.0</ele>
        <time>2010-01-01T00:01:15.084Z</time>
    </trkpt>
    <trkpt lat="50.67915194" lon="13.48586797">
        <ele>640.0</ele>
        <time>2010-01-01T00:02:01.635Z</time>
    </trkpt>
    <trkpt lat="50.67899218" lon="13.48564803">
        <ele>642.0</ele>
        <time>2010-01-01T00:02:22.657Z</time>
    </trkpt>
    <trkpt lat="50.67862166" lon="13.48531544">
        <ele>645.0</ele>
        <time>2010-01-01T00:03:05.454Z</time>
    </trkpt>
    <trkpt lat="50.67805" lon="13.48458">
        <ele>644.0</ele>
        <time>2010-01-01T00:04:19.036Z</time>
    </trkpt>
    <trkpt lat="50.67721434" lon="13.48377585">
        <ele>637.0</ele>
        <time>2010-01-01T00:05:57.396Z</time>
    </trkpt>
    <trkpt lat="50.67696" lon="13.48323">
        <ele>631.0</ele>
        <time>2010-01-01T00:06:40.193Z</time>
    </trkpt>
    <trkpt lat="50.676" lon="13.48324">
        <ele>637.0</ele>
        <time>2010-01-01T00:08:16.300Z</time>
    </trkpt>
    <trkpt lat="50.6748" lon="13.48407">
        <ele>653.0</ele>
        <time>2010-01-01T00:10:27.697Z</time>
    </trkpt>
    <trkpt lat="50.67455596" lon="13.48440885">
        <ele>656.0</ele>
        <time>2010-01-01T00:10:59.982Z</time>
    </trkpt>
    <trkpt lat="50.67442677" lon="13.48468244">
        <ele>658.0</ele>
        <time>2010-01-01T00:11:21.755Z</time>
    </trkpt>
    <trkpt lat="50.67441" lon="13.48486">
        <ele>660.0</ele>
        <time>2010-01-01T00:11:33.016Z</time>
    </trkpt>
    <trkpt lat="50.67411061" lon="13.48702132">
        <ele>672.0</ele>
        <time>2010-01-01T00:13:54.175Z</time>
    </trkpt>
    <trkpt lat="50.67382" lon="13.48983">
        <ele>694.0</ele>
        <time>2010-01-01T00:16:54.378Z</time>
    </trkpt>
    <trkpt lat="50.67357347" lon="13.49052429">
        <ele>701.0</ele>
        <time>2010-01-01T00:17:44.684Z</time>
    </trkpt>
    <trkpt lat="50.67268276" lon="13.4917581">
        <ele>708.0</ele>
        <time>2010-01-01T00:19:44.068Z</time>
    </trkpt>
    <trkpt lat="50.67188383" lon="13.49299728">
        <ele>714.0</ele>
        <time>2010-01-01T00:21:35.943Z</time>
    </trkpt>
    <trkpt lat="50.67172404" lon="13.49323868">
        <ele>716.0</ele>
        <time>2010-01-01T00:21:58.467Z</time>
    </trkpt>
    <trkpt lat="50.67166964" lon="13.49333524">
        <ele>717.0</ele>
        <time>2010-01-01T00:22:06.725Z</time>
    </trkpt>
    <trkpt lat="50.67162544" lon="13.49342644">
        <ele>718.0</ele>
        <time>2010-01-01T00:22:13.481Z</time>
    </trkpt>
    <trkpt lat="50.67143506" lon="13.4935981">
        <ele>721.0</ele>
        <time>2010-01-01T00:22:36.005Z</time>
    </trkpt>
    <trkpt lat="50.67125" lon="13.49366">
        <ele>722.0</ele>
        <time>2010-01-01T00:22:54.775Z</time>
    </trkpt>
    <trkpt lat="50.67090469" lon="13.49367856">
        <ele>723.0</ele>
        <time>2010-01-01T00:23:29.313Z</time>
    </trkpt>
    <trkpt lat="50.67058" lon="13.49374">
        <ele>724.0</ele>
        <time>2010-01-01T00:24:02.349Z</time>
    </trkpt>
    <trkpt lat="50.66785" lon="13.4951">
        <ele>740.0</ele>
        <time>2010-01-01T00:28:49.173Z</time>
    </trkpt>
    <trkpt lat="50.66744353" lon="13.49528789">
        <ele>742.0</ele>
        <time>2010-01-01T00:29:31.219Z</time>
    </trkpt>
    <trkpt lat="50.66721233" lon="13.49557757">
        <ele>742.0</ele>
        <time>2010-01-01T00:30:00.501Z</time>
    </trkpt>
    <trkpt lat="50.66697772" lon="13.49604427">
        <ele>744.0</ele>
        <time>2010-01-01T00:30:38.793Z</time>
    </trkpt>
    <trkpt lat="50.66677" lon="13.49665">
        <ele>747.0</ele>
        <time>2010-01-01T00:31:22.341Z</time>
    </trkpt>
    <trkpt lat="50.66663771" lon="13.4975785">
        <ele>749.0</ele>
        <time>2010-01-01T00:32:23.158Z</time>
    </trkpt>
    <trkpt lat="50.66661051" lon="13.49800765">
        <ele>750.0</ele>
        <time>2010-01-01T00:32:50.187Z</time>
    </trkpt>
    <trkpt lat="50.66654" lon="13.49828">
        <ele>749.0</ele>
        <time>2010-01-01T00:33:08.957Z</time>
    </trkpt>
    <trkpt lat="50.66630449" lon="13.49888205">
        <ele>748.0</ele>
        <time>2010-01-01T00:33:54.007Z</time>
    </trkpt>
    <trkpt lat="50.66601" lon="13.49949">
        <ele>747.0</ele>
        <time>2010-01-01T00:34:42.060Z</time>
    </trkpt>
    <trkpt lat="50.66570606" lon="13.49999248">
        <ele>747.0</ele>
        <time>2010-01-01T00:35:26.359Z</time>
    </trkpt>
    <trkpt lat="50.66492" lon="13.50087">
        <ele>745.0</ele>
        <time>2010-01-01T00:37:03.217Z</time>
    </trkpt>
    <trkpt lat="50.66474719" lon="13.50127995">
        <ele>743.0</ele>
        <time>2010-01-01T00:37:34.000Z</time>
    </trkpt>
    <trkpt lat="50.66440036" lon="13.50228309">
        <ele>744.0</ele>
        <time>2010-01-01T00:38:46.831Z</time>
    </trkpt>
    <trkpt lat="50.66420655" lon="13.50240647">
        <ele>744.0</ele>
        <time>2010-01-01T00:39:07.853Z</time>
    </trkpt>
    <trkpt lat="50.66314" lon="13.50261">
        <ele>754.0</ele>
        <time>2010-01-01T00:40:55.223Z</time>
    </trkpt>
    <trkpt lat="50.66248256" lon="13.50246012">
        <ele>755.0</ele>
        <time>2010-01-01T00:42:02.047Z</time>
    </trkpt>
    <trkpt lat="50.66196909" lon="13.50236892">
        <ele>756.0</ele>
        <time>2010-01-01T00:42:53.854Z</time>
    </trkpt>
    <trkpt lat="50.66165964" lon="13.50228309">
        <ele>756.0</ele>
        <time>2010-01-01T00:43:25.388Z</time>
    </trkpt>
    <trkpt lat="50.66149982" lon="13.50221335">
        <ele>755.0</ele>
        <time>2010-01-01T00:43:41.905Z</time>
    </trkpt>
    <trkpt lat="50.6614" lon="13.50206">
        <ele>753.0</ele>
        <time>2010-01-01T00:43:55.419Z</time>
    </trkpt>
    <trkpt lat="50.66114957" lon="13.50181639">
        <ele>750.0</ele>
        <time>2010-01-01T00:44:25.452Z</time>
    </trkpt>
    <trkpt lat="50.66062" lon="13.50103">
        <ele>746.0</ele>
        <time>2010-01-01T00:45:38.283Z</time>
    </trkpt>
    <trkpt lat="50.66043885" lon="13.50069522">
        <ele>745.0</ele>
        <time>2010-01-01T00:46:06.063Z</time>
    </trkpt>
    <trkpt lat="50.66045585" lon="13.50028216">
        <ele>744.0</ele>
        <time>2010-01-01T00:46:32.341Z</time>
    </trkpt>
    <trkpt lat="50.6601396" lon="13.49986374">
        <ele>745.0</ele>
        <time>2010-01-01T00:47:13.636Z</time>
    </trkpt>
    <trkpt lat="50.65987775" lon="13.49952042">
        <ele>746.0</ele>
        <time>2010-01-01T00:47:47.423Z</time>
    </trkpt>
    <trkpt lat="50.65956829" lon="13.49896252">
        <ele>746.0</ele>
        <time>2010-01-01T00:48:34.725Z</time>
    </trkpt>
    <trkpt lat="50.65927584" lon="13.4986943">
        <ele>747.0</ele>
        <time>2010-01-01T00:49:08.512Z</time>
    </trkpt>
    <trkpt lat="50.65896637" lon="13.49844753">
        <ele>749.0</ele>
        <time>2010-01-01T00:49:43.801Z</time>
    </trkpt>
    <trkpt lat="50.65857869" lon="13.49815249">
        <ele>751.0</ele>
        <time>2010-01-01T00:50:26.598Z</time>
    </trkpt>
    <trkpt lat="50.65834744" lon="13.49806666">
        <ele>752.0</ele>
        <time>2010-01-01T00:50:50.624Z</time>
    </trkpt>
    <trkpt lat="50.6581604" lon="13.49795401">
        <ele>753.0</ele>
        <time>2010-01-01T00:51:10.145Z</time>
    </trkpt>
    <trkpt lat="50.65789174" lon="13.49782526">
        <ele>755.0</ele>
        <time>2010-01-01T00:51:38.676Z</time>
    </trkpt>
    <trkpt lat="50.6576877" lon="13.49785745">
        <ele>757.0</ele>
        <time>2010-01-01T00:51:58.947Z</time>
    </trkpt>
    <trkpt lat="50.65739863" lon="13.49771797">
        <ele>760.0</ele>
        <time>2010-01-01T00:52:29.730Z</time>
    </trkpt>
    <trkpt lat="50.65701094" lon="13.49762678">
        <ele>764.0</ele>
        <time>2010-01-01T00:53:08.773Z</time>
    </trkpt>
    <trkpt lat="50.65688851" lon="13.49725127">
        <ele>764.0</ele>
        <time>2010-01-01T00:53:35.802Z</time>
    </trkpt>
    <trkpt lat="50.65656882" lon="13.49660217">
        <ele>764.0</ele>
        <time>2010-01-01T00:54:27.609Z</time>
    </trkpt>
    <trkpt lat="50.65626955" lon="13.49587261">
        <ele>763.0</ele>
        <time>2010-01-01T00:55:23.170Z</time>
    </trkpt>
    <trkpt lat="50.6560893" lon="13.49552392">
        <ele>764.0</ele>
        <time>2010-01-01T00:55:51.701Z</time>
    </trkpt>
    <trkpt lat="50.65591585" lon="13.49525034">
        <ele>765.0</ele>
        <time>2010-01-01T00:56:15.727Z</time>
    </trkpt>
    <trkpt lat="50.65528328" lon="13.49473536">
        <ele>768.0</ele>
        <time>2010-01-01T00:57:27.056Z</time>
    </trkpt>
    <trkpt lat="50.65510983" lon="13.49459052">
        <ele>768.0</ele>
        <time>2010-01-01T00:57:47.327Z</time>
    </trkpt>
    <trkpt lat="50.65482415" lon="13.49451005">
        <ele>768.0</ele>
        <time>2010-01-01T00:58:15.858Z</time>
    </trkpt>
    <trkpt lat="50.65295016" lon="13.49428474">
        <ele>770.0</ele>
        <time>2010-01-01T01:01:24.320Z</time>
    </trkpt>
    <trkpt lat="50.65264406" lon="13.49421501">
        <ele>771.0</ele>
        <time>2010-01-01T01:01:55.103Z</time>
    </trkpt>
    <trkpt lat="50.65238898" lon="13.49405944">
        <ele>772.0</ele>
        <time>2010-01-01T01:02:22.883Z</time>
    </trkpt>
    <trkpt lat="50.65215429" lon="13.49383413">
        <ele>772.0</ele>
        <time>2010-01-01T01:02:50.663Z</time>
    </trkpt>
    <trkpt lat="50.65180057" lon="13.49339425">
        <ele>771.0</ele>
        <time>2010-01-01T01:03:35.713Z</time>
    </trkpt>
    <trkpt lat="50.65168" lon="13.49319">
        <ele>770.0</ele>
        <time>2010-01-01T01:03:52.981Z</time>
    </trkpt>
    <trkpt lat="50.65088" lon="13.49268">
        <ele>769.0</ele>
        <time>2010-01-01T01:05:19.327Z</time>
    </trkpt>
    <trkpt lat="50.65032102" lon="13.49256813">
        <ele>767.0</ele>
        <time>2010-01-01T01:06:16.390Z</time>
    </trkpt>
    <trkpt lat="50.6500115" lon="13.49211215">
        <ele>764.0</ele>
        <time>2010-01-01T01:06:58.436Z</time>
    </trkpt>
    <trkpt lat="50.64981762" lon="13.49189758">
        <ele>762.0</ele>
        <time>2010-01-01T01:07:22.462Z</time>
    </trkpt>
    <trkpt lat="50.64948429" lon="13.49151134">
        <ele>760.0</ele>
        <time>2010-01-01T01:08:03.757Z</time>
    </trkpt>
    <trkpt lat="50.64924959" lon="13.4911412">
        <ele>759.0</ele>
        <time>2010-01-01T01:08:36.793Z</time>
    </trkpt>
    <trkpt lat="50.64911694" lon="13.49087834">
        <ele>759.0</ele>
        <time>2010-01-01T01:08:58.566Z</time>
    </trkpt>
    <trkpt lat="50.64896728" lon="13.49063694">
        <ele>758.0</ele>
        <time>2010-01-01T01:09:19.588Z</time>
    </trkpt>
    <trkpt lat="50.64880061" lon="13.49039554">
        <ele>758.0</ele>
        <time>2010-01-01T01:09:42.112Z</time>
    </trkpt>
    <trkpt lat="50.64799106" lon="13.48963379">
        <ele>754.0</ele>
        <time>2010-01-01T01:11:16.718Z</time>
    </trkpt>
    <trkpt lat="50.64723932" lon="13.4889847">
        <ele>752.0</ele>
        <time>2010-01-01T01:12:43.064Z</time>
    </trkpt>
    <trkpt lat="50.64649098" lon="13.48716616">
        <ele>753.0</ele>
        <time>2010-01-01T01:15:00.468Z</time>
    </trkpt>
    <trkpt lat="50.64639" lon="13.48576">
        <ele>753.0</ele>
        <time>2010-01-01T01:16:30.569Z</time>
    </trkpt>
    <trkpt lat="50.6463141" lon="13.4855622">
        <ele>754.0</ele>
        <time>2010-01-01T01:16:44.834Z</time>
    </trkpt>
    <trkpt lat="50.64623926" lon="13.48513305">
        <ele>755.0</ele>
        <time>2010-01-01T01:17:13.365Z</time>
    </trkpt>
    <trkpt lat="50.64618483" lon="13.48491847">
        <ele>755.0</ele>
        <time>2010-01-01T01:17:27.630Z</time>
    </trkpt>
    <trkpt lat="50.64604877" lon="13.48467707">
        <ele>756.0</ele>
        <time>2010-01-01T01:17:48.652Z</time>
    </trkpt>
    <trkpt lat="50.64598" lon="13.48425">
        <ele>757.0</ele>
        <time>2010-01-01T01:18:16.432Z</time>
    </trkpt>
    <trkpt lat="50.64597053" lon="13.48340034">
        <ele>760.0</ele>
        <time>2010-01-01T01:19:10.492Z</time>
    </trkpt>
    <trkpt lat="50.64597" lon="13.4834">
        <ele>760.5</ele>
        <time>2010-01-01T01:19:10.549Z</time>
    </trkpt>
    <trkpt lat="50.645926" lon="13.483447">
        <ele>761.1</ele>
        <time>2010-01-01T01:19:15.873Z</time>
    </trkpt>
    <trkpt lat="50.645986" lon="13.481653">
        <ele>762.0</ele>
        <time>2010-01-01T01:21:10.005Z</time>
    </trkpt>
    <trkpt lat="50.645964" lon="13.481568">
        <ele>762.2</ele>
        <time>2010-01-01T01:21:15.837Z</time>
    </trkpt>
    <trkpt lat="50.646233" lon="13.481286">
        <ele>762.1</ele>
        <time>2010-01-01T01:21:48.199Z</time>
    </trkpt>
    <trkpt lat="50.64685" lon="13.480743">
        <ele>762.1</ele>
        <time>2010-01-01T01:22:58.989Z</time>
    </trkpt>
    <trkpt lat="50.647235" lon="13.480366">
        <ele>762.1</ele>
        <time>2010-01-01T01:23:44.392Z</time>
    </trkpt>
    <trkpt lat="50.64742" lon="13.480224">
        <ele>762.1</ele>
        <time>2010-01-01T01:24:05.005Z</time>
    </trkpt>
    <trkpt lat="50.647568" lon="13.480138">
        <ele>762.1</ele>
        <time>2010-01-01T01:24:20.807Z</time>
    </trkpt>
    <trkpt lat="50.647867" lon="13.480033">
        <ele>761.9</ele>
        <time>2010-01-01T01:24:51.497Z</time>
    </trkpt>
    <trkpt lat="50.648084" lon="13.479995">
        <ele>761.9</ele>
        <time>2010-01-01T01:25:13.371Z</time>
    </trkpt>
    <trkpt lat="50.648478" lon="13.479927">
        <ele>761.9</ele>
        <time>2010-01-01T01:25:53.080Z</time>
    </trkpt>
    <trkpt lat="50.65002" lon="13.479802">
        <ele>754.5</ele>
        <time>2010-01-01T01:28:27.774Z</time>
    </trkpt>
    <trkpt lat="50.651634" lon="13.47955">
        <ele>751.8</ele>
        <time>2010-01-01T01:31:10.268Z</time>
    </trkpt>
    <trkpt lat="50.651634" lon="13.47955">
        <ele>751.8</ele>
        <time>2010-01-01T01:31:10.268Z</time>
    </trkpt>
    <trkpt lat="50.651798" lon="13.479509">
        <ele>751.9</ele>
        <time>2010-01-01T01:31:26.916Z</time>
    </trkpt>
    <trkpt lat="50.652076" lon="13.479357">
        <ele>751.8</ele>
        <time>2010-01-01T01:31:56.416Z</time>
    </trkpt>
    <trkpt lat="50.652331" lon="13.479148">
        <ele>751.4</ele>
        <time>2010-01-01T01:32:25.229Z</time>
    </trkpt>
    <trkpt lat="50.652823" lon="13.478611">
        <ele>745.9</ele>
        <time>2010-01-01T01:33:25.219Z</time>
    </trkpt>
    <trkpt lat="50.653752" lon="13.477838">
        <ele>741.4</ele>
        <time>2010-01-01T01:35:10.531Z</time>
    </trkpt>
    <trkpt lat="50.653751" lon="13.477865">
        <ele>742.3</ele>
        <time>2010-01-01T01:35:12.250Z</time>
    </trkpt>
    <trkpt lat="50.65374602" lon="13.47786426">
        <ele>745.0</ele>
        <time>2010-01-01T01:35:12.751Z</time>
    </trkpt>
    <trkpt lat="50.65521526" lon="13.47628712">
        <ele>740.0</ele>
        <time>2010-01-01T01:38:10.701Z</time>
    </trkpt>
    <trkpt lat="50.65654" lon="13.47465">
        <ele>734.0</ele>
        <time>2010-01-01T01:40:58.890Z</time>
    </trkpt>
    <trkpt lat="50.65702794" lon="13.47415745">
        <ele>737.0</ele>
        <time>2010-01-01T01:41:57.455Z</time>
    </trkpt>
    <trkpt lat="50.6572864" lon="13.47396969">
        <ele>738.0</ele>
        <time>2010-01-01T01:42:25.986Z</time>
    </trkpt>
    <trkpt lat="50.65754826" lon="13.47380876">
        <ele>740.0</ele>
        <time>2010-01-01T01:42:53.766Z</time>
    </trkpt>
    <trkpt lat="50.65853448" lon="13.47313821">
        <ele>745.0</ele>
        <time>2010-01-01T01:44:41.136Z</time>
    </trkpt>
    <trkpt lat="50.65865351" lon="13.47302019">
        <ele>746.0</ele>
        <time>2010-01-01T01:44:55.401Z</time>
    </trkpt>
    <trkpt lat="50.65876913" lon="13.47265005">
        <ele>746.0</ele>
        <time>2010-01-01T01:45:21.679Z</time>
    </trkpt>
    <trkpt lat="50.65882014" lon="13.47224771">
        <ele>746.0</ele>
        <time>2010-01-01T01:45:47.957Z</time>
    </trkpt>
    <trkpt lat="50.65893577" lon="13.4714806">
        <ele>747.0</ele>
        <time>2010-01-01T01:46:38.263Z</time>
    </trkpt>
    <trkpt lat="50.65916" lon="13.46999">
        <ele>751.0</ele>
        <time>2010-01-01T01:48:15.121Z</time>
    </trkpt>
    <trkpt lat="50.65927584" lon="13.46942603">
        <ele>755.0</ele>
        <time>2010-01-01T01:48:52.662Z</time>
    </trkpt>
    <trkpt lat="50.6595955" lon="13.46863746">
        <ele>759.0</ele>
        <time>2010-01-01T01:49:51.978Z</time>
    </trkpt>
    <trkpt lat="50.65972812" lon="13.46829414">
        <ele>761.0</ele>
        <time>2010-01-01T01:50:17.505Z</time>
    </trkpt>
    <trkpt lat="50.6597111" lon="13.4680259">
        <ele>763.0</ele>
        <time>2010-01-01T01:50:34.773Z</time>
    </trkpt>
    <trkpt lat="50.659099" lon="13.46675992">
        <ele>777.0</ele>
        <time>2010-01-01T01:52:16.136Z</time>
    </trkpt>
    <trkpt lat="50.65896637" lon="13.46649706">
        <ele>777.0</ele>
        <time>2010-01-01T01:52:37.158Z</time>
    </trkpt>
    <trkpt lat="50.6588541" lon="13.4661805">
        <ele>778.0</ele>
        <time>2010-01-01T01:53:00.433Z</time>
    </trkpt>
    <trkpt lat="50.658852" lon="13.466181">
        <ele>770.3</ele>
        <time>2010-01-01T01:53:00.645Z</time>
    </trkpt>
    <trkpt lat="50.658838" lon="13.465953">
        <ele>770.1</ele>
        <time>2010-01-01T01:53:15.167Z</time>
    </trkpt>
    <trkpt lat="50.658851" lon="13.465885">
        <ele>770.1</ele>
        <time>2010-01-01T01:53:19.669Z</time>
    </trkpt>
    <trkpt lat="50.658906" lon="13.465724">
        <ele>769.9</ele>
        <time>2010-01-01T01:53:31.263Z</time>
    </trkpt>
    <trkpt lat="50.658915" lon="13.465631">
        <ele>769.4</ele>
        <time>2010-01-01T01:53:37.227Z</time>
    </trkpt>
    <trkpt lat="50.658876" lon="13.465428">
        <ele>767.3</ele>
        <time>2010-01-01T01:53:50.674Z</time>
    </trkpt>
    <trkpt lat="50.658749" lon="13.465042">
        <ele>765.1</ele>
        <time>2010-01-01T01:54:18.245Z</time>
    </trkpt>
    <trkpt lat="50.658748" lon="13.464898">
        <ele>760.2</ele>
        <time>2010-01-01T01:54:27.374Z</time>
    </trkpt>
    <trkpt lat="50.658668" lon="13.464534">
        <ele>759.4</ele>
        <time>2010-01-01T01:54:51.798Z</time>
    </trkpt>
    <trkpt lat="50.65865" lon="13.464324">
        <ele>756.7</ele>
        <time>2010-01-01T01:55:05.232Z</time>
    </trkpt>
    <trkpt lat="50.6586365" lon="13.4643352">
        <ele>768.0</ele>
        <time>2010-01-01T01:55:06.757Z</time>
    </trkpt>
    <trkpt lat="50.65865" lon="13.464324">
        <ele>756.7</ele>
        <time>2010-01-01T01:55:08.285Z</time>
    </trkpt>
    <trkpt lat="50.658604" lon="13.464278">
        <ele>756.9</ele>
        <time>2010-01-01T01:55:13.744Z</time>
    </trkpt>
    <trkpt lat="50.658447" lon="13.464242">
        <ele>756.9</ele>
        <time>2010-01-01T01:55:29.647Z</time>
    </trkpt>
    <trkpt lat="50.658308" lon="13.464179">
        <ele>756.7</ele>
        <time>2010-01-01T01:55:44.144Z</time>
    </trkpt>
    <trkpt lat="50.658181" lon="13.46407">
        <ele>755.8</ele>
        <time>2010-01-01T01:55:58.636Z</time>
    </trkpt>
    <trkpt lat="50.658285" lon="13.463622">
        <ele>739.3</ele>
        <time>2010-01-01T01:56:28.953Z</time>
    </trkpt>
    <trkpt lat="50.658366" lon="13.463388">
        <ele>738.1</ele>
        <time>2010-01-01T01:56:45.895Z</time>
    </trkpt>
    <trkpt lat="50.658494" lon="13.463088">
        <ele>734.4</ele>
        <time>2010-01-01T01:57:08.874Z</time>
    </trkpt>
    <trkpt lat="50.658701" lon="13.462367">
        <ele>728.5</ele>
        <time>2010-01-01T01:57:59.170Z</time>
    </trkpt>
    <trkpt lat="50.658783" lon="13.461843">
        <ele>721.6</ele>
        <time>2010-01-01T01:58:33.467Z</time>
    </trkpt>
    <trkpt lat="50.658787" lon="13.461712">
        <ele>719.6</ele>
        <time>2010-01-01T01:58:41.801Z</time>
    </trkpt>
    <trkpt lat="50.658799" lon="13.46132">
        <ele>717.6</ele>
        <time>2010-01-01T01:59:06.739Z</time>
    </trkpt>
    <trkpt lat="50.658779" lon="13.461203">
        <ele>716.8</ele>
        <time>2010-01-01T01:59:14.439Z</time>
    </trkpt>
    <trkpt lat="50.658779" lon="13.461203">
        <ele>716.8</ele>
        <time>2010-01-01T01:59:14.439Z</time>
    </trkpt>
    <trkpt lat="50.658779" lon="13.461203">
        <ele>716.8</ele>
        <time>2010-01-01T01:59:14.439Z</time>
    </trkpt>
    <trkpt lat="50.658709" lon="13.460794">
        <ele>715.9</ele>
        <time>2010-01-01T01:59:41.357Z</time>
    </trkpt>
    <trkpt lat="50.658711" lon="13.460743">
        <ele>715.3</ele>
        <time>2010-01-01T01:59:44.603Z</time>
    </trkpt>
    <trkpt lat="50.658727" lon="13.46039">
        <ele>715.3</ele>
        <time>2010-01-01T02:00:07.090Z</time>
    </trkpt>
    <trkpt lat="50.658727" lon="13.46039">
        <ele>715.3</ele>
        <time>2010-01-01T02:00:07.090Z</time>
    </trkpt>
    <trkpt lat="50.65872" lon="13.460082">
        <ele>700.9</ele>
        <time>2010-01-01T02:00:26.674Z</time>
    </trkpt>
    <trkpt lat="50.659013" lon="13.460107">
        <ele>697.0</ele>
        <time>2010-01-01T02:00:56.086Z</time>
    </trkpt>
    <trkpt lat="50.659013" lon="13.460107">
        <ele>697.0</ele>
        <time>2010-01-01T02:00:56.086Z</time>
    </trkpt>
    <trkpt lat="50.659013" lon="13.460107">
        <ele>697.0</ele>
        <time>2010-01-01T02:00:56.086Z</time>
    </trkpt>
    <trkpt lat="50.659179" lon="13.460121">
        <ele>693.1</ele>
        <time>2010-01-01T02:01:12.747Z</time>
    </trkpt>
    <trkpt lat="50.659465" lon="13.460318">
        <ele>693.0</ele>
        <time>2010-01-01T02:01:44.025Z</time>
    </trkpt>
    <trkpt lat="50.65965" lon="13.460542">
        <ele>692.1</ele>
        <time>2010-01-01T02:02:07.399Z</time>
    </trkpt>
    <trkpt lat="50.65971" lon="13.46059">
        <ele>691.9</ele>
        <time>2010-01-01T02:02:14.141Z</time>
    </trkpt>
    <trkpt lat="50.65971" lon="13.46059">
        <ele>691.9</ele>
        <time>2010-01-01T02:02:14.141Z</time>
    </trkpt>
    <trkpt lat="50.659975" lon="13.460801">
        <ele>691.7</ele>
        <time>2010-01-01T02:02:43.896Z</time>
    </trkpt>
    <trkpt lat="50.660748" lon="13.461091">
        <ele>689.4</ele>
        <time>2010-01-01T02:04:03.543Z</time>
    </trkpt>
    <trkpt lat="50.660946" lon="13.461191">
        <ele>687.1</ele>
        <time>2010-01-01T02:04:24.382Z</time>
    </trkpt>
    <trkpt lat="50.661221" lon="13.461404">
        <ele>688.0</ele>
        <time>2010-01-01T02:04:55.091Z</time>
    </trkpt>
    <trkpt lat="50.661772" lon="13.46173">
        <ele>686.9</ele>
        <time>2010-01-01T02:05:54.080Z</time>
    </trkpt>
    <trkpt lat="50.662081" lon="13.461801">
        <ele>686.4</ele>
        <time>2010-01-01T02:06:25.381Z</time>
    </trkpt>
    <trkpt lat="50.662256" lon="13.46189">
        <ele>685.9</ele>
        <time>2010-01-01T02:06:43.812Z</time>
    </trkpt>
    <trkpt lat="50.6624" lon="13.462">
        <ele>685.2</ele>
        <time>2010-01-01T02:06:59.850Z</time>
    </trkpt>
    <trkpt lat="50.662438" lon="13.462051">
        <ele>684.6</ele>
        <time>2010-01-01T02:07:04.851Z</time>
    </trkpt>
    <trkpt lat="50.6624383" lon="13.4620499">
        <ele>694.0</ele>
        <time>2010-01-01T02:07:04.927Z</time>
    </trkpt>
    <trkpt lat="50.662438" lon="13.462051">
        <ele>684.6</ele>
        <time>2010-01-01T02:07:05.003Z</time>
    </trkpt>
    <trkpt lat="50.662763" lon="13.462488">
        <ele>684.0</ele>
        <time>2010-01-01T02:07:47.781Z</time>
    </trkpt>
    <trkpt lat="50.663618" lon="13.463554">
        <ele>680.3</ele>
        <time>2010-01-01T02:09:36.949Z</time>
    </trkpt>
    <trkpt lat="50.663931" lon="13.464025">
        <ele>676.8</ele>
        <time>2010-01-01T02:10:20.280Z</time>
    </trkpt>
    <trkpt lat="50.663991" lon="13.464134">
        <ele>674.5</ele>
        <time>2010-01-01T02:10:29.446Z</time>
    </trkpt>
    <trkpt lat="50.664148" lon="13.464602">
        <ele>671.5</ele>
        <time>2010-01-01T02:11:03.068Z</time>
    </trkpt>
    <trkpt lat="50.664337" lon="13.465238">
        <ele>666.6</ele>
        <time>2010-01-01T02:11:47.670Z</time>
    </trkpt>
    <trkpt lat="50.664505" lon="13.466172">
        <ele>662.5</ele>
        <time>2010-01-01T02:12:49.317Z</time>
    </trkpt>
    <trkpt lat="50.664649" lon="13.466575">
        <ele>661.2</ele>
        <time>2010-01-01T02:13:18.692Z</time>
    </trkpt>
    <trkpt lat="50.664747" lon="13.466794">
        <ele>661.0</ele>
        <time>2010-01-01T02:13:35.713Z</time>
    </trkpt>
    <trkpt lat="50.665181" lon="13.467529">
        <ele>660.3</ele>
        <time>2010-01-01T02:14:39.495Z</time>
    </trkpt>
    <trkpt lat="50.665457" lon="13.468064">
        <ele>659.9</ele>
        <time>2010-01-01T02:15:23.294Z</time>
    </trkpt>
    <trkpt lat="50.665457" lon="13.468064">
        <ele>659.9</ele>
        <time>2010-01-01T02:15:23.294Z</time>
    </trkpt>
    <trkpt lat="50.66563" lon="13.468432">
        <ele>659.1</ele>
        <time>2010-01-01T02:15:52.384Z</time>
    </trkpt>
    <trkpt lat="50.66571" lon="13.468649">
        <ele>659.1</ele>
        <time>2010-01-01T02:16:08.322Z</time>
    </trkpt>
    <trkpt lat="50.665833" lon="13.469073">
        <ele>659.0</ele>
        <time>2010-01-01T02:16:37.927Z</time>
    </trkpt>
    <trkpt lat="50.665922" lon="13.469477">
        <ele>659.0</ele>
        <time>2010-01-01T02:17:05.082Z</time>
    </trkpt>
    <trkpt lat="50.666003" lon="13.469759">
        <ele>658.9</ele>
        <time>2010-01-01T02:17:24.739Z</time>
    </trkpt>
    <trkpt lat="50.666055" lon="13.469891">
        <ele>658.8</ele>
        <time>2010-01-01T02:17:34.606Z</time>
    </trkpt>
    <trkpt lat="50.666166" lon="13.470101">
        <ele>657.4</ele>
        <time>2010-01-01T02:17:51.966Z</time>
    </trkpt>
    <trkpt lat="50.666332" lon="13.470325">
        <ele>653.1</ele>
        <time>2010-01-01T02:18:13.846Z</time>
    </trkpt>
    <trkpt lat="50.666458" lon="13.470443">
        <ele>653.2</ele>
        <time>2010-01-01T02:18:28.523Z</time>
    </trkpt>
    <trkpt lat="50.666765" lon="13.470653">
        <ele>653.0</ele>
        <time>2010-01-01T02:19:02.040Z</time>
    </trkpt>
    <trkpt lat="50.666907" lon="13.470798">
        <ele>652.5</ele>
        <time>2010-01-01T02:19:18.983Z</time>
    </trkpt>
    <trkpt lat="50.666987" lon="13.470952">
        <ele>651.8</ele>
        <time>2010-01-01T02:19:31.624Z</time>
    </trkpt>
    <trkpt lat="50.667093" lon="13.471373">
        <ele>646.8</ele>
        <time>2010-01-01T02:20:00.384Z</time>
    </trkpt>
    <trkpt lat="50.667135" lon="13.471663">
        <ele>648.3</ele>
        <time>2010-01-01T02:20:19.270Z</time>
    </trkpt>
    <trkpt lat="50.667141" lon="13.47189">
        <ele>648.2</ele>
        <time>2010-01-01T02:20:33.694Z</time>
    </trkpt>
    <trkpt lat="50.667095" lon="13.472219">
        <ele>648.2</ele>
        <time>2010-01-01T02:20:55.084Z</time>
    </trkpt>
    <trkpt lat="50.666964" lon="13.472631">
        <ele>651.4</ele>
        <time>2010-01-01T02:21:24.348Z</time>
    </trkpt>
    <trkpt lat="50.666733" lon="13.473036">
        <ele>655.7</ele>
        <time>2010-01-01T02:21:58.939Z</time>
    </trkpt>
    <trkpt lat="50.666518" lon="13.473607">
        <ele>656.2</ele>
        <time>2010-01-01T02:22:41.106Z</time>
    </trkpt>
    <trkpt lat="50.666291" lon="13.474379">
        <ele>656.7</ele>
        <time>2010-01-01T02:23:35.138Z</time>
    </trkpt>
    <trkpt lat="50.666242" lon="13.474488">
        <ele>659.9</ele>
        <time>2010-01-01T02:23:43.622Z</time>
    </trkpt>
    <trkpt lat="50.666833" lon="13.47612">
        <ele>654.0</ele>
        <time>2010-01-01T02:25:42.957Z</time>
    </trkpt>
    <trkpt lat="50.666973" lon="13.476442">
        <ele>653.4</ele>
        <time>2010-01-01T02:26:07.748Z</time>
    </trkpt>
    <trkpt lat="50.667056965311616" lon="13.476555000110626">
        <ele>655.2</ele>
        <time>2010-01-01T02:26:18.799Z</time>
    </trkpt>
    <trkpt lat="50.66714093047307" lon="13.476668000221254">
        <ele>655.5</ele>
        <time>2010-01-01T02:26:29.850Z</time>
    </trkpt>
    <trkpt lat="50.667147" lon="13.47664">
        <ele>650.9</ele>
        <time>2010-01-01T02:26:31.728Z</time>
    </trkpt>
    <trkpt lat="50.667194" lon="13.476666">
        <ele>649.3</ele>
        <time>2010-01-01T02:26:36.717Z</time>
    </trkpt>
    <trkpt lat="50.667367" lon="13.476687">
        <ele>646.9</ele>
        <time>2010-01-01T02:26:54.098Z</time>
    </trkpt>
    <trkpt lat="50.667533" lon="13.47667">
        <ele>644.6</ele>
        <time>2010-01-01T02:27:10.762Z</time>
    </trkpt>
    <trkpt lat="50.667708" lon="13.476612">
        <ele>643.5</ele>
        <time>2010-01-01T02:27:28.675Z</time>
    </trkpt>
    <trkpt lat="50.669021" lon="13.475933">
        <ele>621.5</ele>
        <time>2010-01-01T02:29:47.091Z</time>
    </trkpt>
    <trkpt lat="50.669191" lon="13.475826">
        <ele>623.1</ele>
        <time>2010-01-01T02:30:05.425Z</time>
    </trkpt>
    <trkpt lat="50.670332" lon="13.474504">
        <ele>612.0</ele>
        <time>2010-01-01T02:32:27.233Z</time>
    </trkpt>
    <trkpt lat="50.670719" lon="13.47402">
        <ele>607.2</ele>
        <time>2010-01-01T02:33:16.702Z</time>
    </trkpt>
    <trkpt lat="50.67088" lon="13.473792">
        <ele>602.5</ele>
        <time>2010-01-01T02:33:38.373Z</time>
    </trkpt>
    <trkpt lat="50.670974" lon="13.473597">
        <ele>602.5</ele>
        <time>2010-01-01T02:33:53.927Z</time>
    </trkpt>
    <trkpt lat="50.671097" lon="13.473175">
        <ele>602.0</ele>
        <time>2010-01-01T02:34:23.416Z</time>
    </trkpt>
    <trkpt lat="50.671369" lon="13.471948">
        <ele>591.8</ele>
        <time>2010-01-01T02:35:45.944Z</time>
    </trkpt>
    <trkpt lat="50.671402" lon="13.471862">
        <ele>588.8</ele>
        <time>2010-01-01T02:35:52.326Z</time>
    </trkpt>
    <trkpt lat="50.671457" lon="13.471808">
        <ele>588.9</ele>
        <time>2010-01-01T02:35:58.815Z</time>
    </trkpt>
    <trkpt lat="50.671509" lon="13.47179">
        <ele>588.9</ele>
        <time>2010-01-01T02:36:04.148Z</time>
    </trkpt>
    <trkpt lat="50.67161" lon="13.471816">
        <ele>588.6</ele>
        <time>2010-01-01T02:36:14.399Z</time>
    </trkpt>
    <trkpt lat="50.671646" lon="13.471859">
        <ele>588.4</ele>
        <time>2010-01-01T02:36:18.922Z</time>
    </trkpt>
    <trkpt lat="50.671897" lon="13.472553">
        <ele>584.8</ele>
        <time>2010-01-01T02:37:09.652Z</time>
    </trkpt>
    <trkpt lat="50.672043" lon="13.47287">
        <ele>584.0</ele>
        <time>2010-01-01T02:37:34.530Z</time>
    </trkpt>
    <trkpt lat="50.672236" lon="13.473184">
        <ele>584.0</ele>
        <time>2010-01-01T02:38:02.300Z</time>
    </trkpt>
    <trkpt lat="50.672373" lon="13.473304">
        <ele>582.7</ele>
        <time>2010-01-01T02:38:17.996Z</time>
    </trkpt>
    <trkpt lat="50.672588" lon="13.473435">
        <ele>580.2</ele>
        <time>2010-01-01T02:38:41.083Z</time>
    </trkpt>
    <trkpt lat="50.672678" lon="13.473452">
        <ele>580.2</ele>
        <time>2010-01-01T02:38:50.163Z</time>
    </trkpt>
    <trkpt lat="50.672831" lon="13.473437">
        <ele>580.0</ele>
        <time>2010-01-01T02:39:05.519Z</time>
    </trkpt>
    <trkpt lat="50.672954" lon="13.473373">
        <ele>579.5</ele>
        <time>2010-01-01T02:39:18.493Z</time>
    </trkpt>
    <trkpt lat="50.673025" lon="13.473287">
        <ele>576.3</ele>
        <time>2010-01-01T02:39:27.459Z</time>
    </trkpt>
    <trkpt lat="50.673073" lon="13.473162">
        <ele>575.5</ele>
        <time>2010-01-01T02:39:36.737Z</time>
    </trkpt>
    <trkpt lat="50.673092" lon="13.473007">
        <ele>574.8</ele>
        <time>2010-01-01T02:39:46.759Z</time>
    </trkpt>
    <trkpt lat="50.673184" lon="13.473077">
        <ele>574.3</ele>
        <time>2010-01-01T02:39:56.990Z</time>
    </trkpt>
    <trkpt lat="50.673232" lon="13.473172">
        <ele>574.4</ele>
        <time>2010-01-01T02:40:04.703Z</time>
    </trkpt>
    <trkpt lat="50.673265" lon="13.473278">
        <ele>574.4</ele>
        <time>2010-01-01T02:40:12.200Z</time>
    </trkpt>
    <trkpt lat="50.67328" lon="13.473496">
        <ele>574.6</ele>
        <time>2010-01-01T02:40:26.121Z</time>
    </trkpt>
    <trkpt lat="50.673257" lon="13.473618">
        <ele>575.2</ele>
        <time>2010-01-01T02:40:34.201Z</time>
    </trkpt>
    <trkpt lat="50.673153" lon="13.473954">
        <ele>577.2</ele>
        <time>2010-01-01T02:40:57.940Z</time>
    </trkpt>
    <trkpt lat="50.672889" lon="13.474459">
        <ele>577.3</ele>
        <time>2010-01-01T02:41:39.500Z</time>
    </trkpt>
    <trkpt lat="50.671907" lon="13.476046">
        <ele>580.6</ele>
        <time>2010-01-01T02:44:00.313Z</time>
    </trkpt>
    <trkpt lat="50.671874" lon="13.476123">
        <ele>582.3</ele>
        <time>2010-01-01T02:44:06.214Z</time>
    </trkpt>
    <trkpt lat="50.671775" lon="13.47683">
        <ele>579.5</ele>
        <time>2010-01-01T02:44:52.182Z</time>
    </trkpt>
    <trkpt lat="50.671652" lon="13.477321">
        <ele>577.5</ele>
        <time>2010-01-01T02:45:25.701Z</time>
    </trkpt>
    <trkpt lat="50.67142" lon="13.47759">
        <ele>582.8</ele>
        <time>2010-01-01T02:45:54.542Z</time>
    </trkpt>
    <trkpt lat="50.670537" lon="13.477946">
        <ele>584.4</ele>
        <time>2010-01-01T02:47:25.839Z</time>
    </trkpt>
    <trkpt lat="50.670385" lon="13.478058">
        <ele>585.6</ele>
        <time>2010-01-01T02:47:42.644Z</time>
    </trkpt>
    <trkpt lat="50.670232" lon="13.478219">
        <ele>585.9</ele>
        <time>2010-01-01T02:48:01.066Z</time>
    </trkpt>
    <trkpt lat="50.670072" lon="13.478466">
        <ele>586.6</ele>
        <time>2010-01-01T02:48:23.489Z</time>
    </trkpt>
    <trkpt lat="50.669872" lon="13.47902">
        <ele>583.7</ele>
        <time>2010-01-01T02:49:03.968Z</time>
    </trkpt>
    <trkpt lat="50.669812" lon="13.479119">
        <ele>584.7</ele>
        <time>2010-01-01T02:49:12.664Z</time>
    </trkpt>
    <trkpt lat="50.669723" lon="13.479212">
        <ele>585.6</ele>
        <time>2010-01-01T02:49:23.357Z</time>
    </trkpt>
    <trkpt lat="50.669187" lon="13.479591">
        <ele>590.5</ele>
        <time>2010-01-01T02:50:22.196Z</time>
    </trkpt>
    <trkpt lat="50.668969" lon="13.479807">
        <ele>593.5</ele>
        <time>2010-01-01T02:50:47.983Z</time>
    </trkpt>
    <trkpt lat="50.668754" lon="13.479981">
        <ele>595.0</ele>
        <time>2010-01-01T02:51:12.188Z</time>
    </trkpt>
    <trkpt lat="50.668272" lon="13.480142">
        <ele>597.2</ele>
        <time>2010-01-01T02:52:01.543Z</time>
    </trkpt>
    <trkpt lat="50.668106" lon="13.480236">
        <ele>597.6</ele>
        <time>2010-01-01T02:52:19.210Z</time>
    </trkpt>
    <trkpt lat="50.667908" lon="13.480425">
        <ele>598.0</ele>
        <time>2010-01-01T02:52:42.392Z</time>
    </trkpt>
    <trkpt lat="50.66744" lon="13.480951">
        <ele>599.9</ele>
        <time>2010-01-01T02:53:39.953Z</time>
    </trkpt>
    <trkpt lat="50.667116" lon="13.481402">
        <ele>601.3</ele>
        <time>2010-01-01T02:54:23.236Z</time>
    </trkpt>
    <trkpt lat="50.666895" lon="13.481806">
        <ele>602.0</ele>
        <time>2010-01-01T02:54:57.120Z</time>
    </trkpt>
    <trkpt lat="50.666677" lon="13.482203">
        <ele>602.7</ele>
        <time>2010-01-01T02:55:30.471Z</time>
    </trkpt>
    <trkpt lat="50.666009" lon="13.482994">
        <ele>608.0</ele>
        <time>2010-01-01T02:56:54.139Z</time>
    </trkpt>
    <trkpt lat="50.665901" lon="13.483149">
        <ele>608.2</ele>
        <time>2010-01-01T02:57:08.764Z</time>
    </trkpt>
    <trkpt lat="50.665818" lon="13.483305">
        <ele>611.0</ele>
        <time>2010-01-01T02:57:21.696Z</time>
    </trkpt>
    <trkpt lat="50.665736" lon="13.483405">
        <ele>611.9</ele>
        <time>2010-01-01T02:57:32.078Z</time>
    </trkpt>
    <trkpt lat="50.665133" lon="13.483862">
        <ele>612.9</ele>
        <time>2010-01-01T02:58:39.092Z</time>
    </trkpt>
    <trkpt lat="50.665021" lon="13.483975">
        <ele>614.1</ele>
        <time>2010-01-01T02:58:52.409Z</time>
    </trkpt>
    <trkpt lat="50.664668" lon="13.484671">
        <ele>618.5</ele>
        <time>2010-01-01T02:59:49.009Z</time>
    </trkpt>
    <trkpt lat="50.664364" lon="13.485343">
        <ele>620.3</ele>
        <time>2010-01-01T03:00:41.432Z</time>
    </trkpt>
    <trkpt lat="50.664193" lon="13.485847">
        <ele>622.9</ele>
        <time>2010-01-01T03:01:17.731Z</time>
    </trkpt>
    <trkpt lat="50.6642" lon="13.485858">
        <ele>624.5</ele>
        <time>2010-01-01T03:01:18.720Z</time>
    </trkpt>
    <trkpt lat="50.6642" lon="13.485858">
        <ele>624.5</ele>
        <time>2010-01-01T03:01:18.720Z</time>
    </trkpt>
    <trkpt lat="50.66430856" lon="13.48607182">
        <ele>634.0</ele>
        <time>2010-01-01T03:01:36.115Z</time>
    </trkpt>
    <trkpt lat="50.66446837" lon="13.48639905">
        <ele>638.0</ele>
        <time>2010-01-01T03:02:02.393Z</time>
    </trkpt>
    <trkpt lat="50.66456358" lon="13.48672628">
        <ele>641.0</ele>
        <time>2010-01-01T03:02:24.917Z</time>
    </trkpt>
    <trkpt lat="50.66463498" lon="13.48719298">
        <ele>645.0</ele>
        <time>2010-01-01T03:02:55.700Z</time>
    </trkpt>
    <trkpt lat="50.66464" lon="13.488">
        <ele>650.0</ele>
        <time>2010-01-01T03:03:46.756Z</time>
    </trkpt>
    <trkpt lat="50.66475059" lon="13.4880191">
        <ele>650.0</ele>
        <time>2010-01-01T03:03:58.017Z</time>
    </trkpt>
    <trkpt lat="50.6648594" lon="13.48791718">
        <ele>650.0</ele>
        <time>2010-01-01T03:04:10.780Z</time>
    </trkpt>
    <trkpt lat="50.66502" lon="13.48774">
        <ele>649.0</ele>
        <time>2010-01-01T03:04:30.301Z</time>
    </trkpt>
    <trkpt lat="50.66535244" lon="13.48694622">
        <ele>651.0</ele>
        <time>2010-01-01T03:05:30.368Z</time>
    </trkpt>
    <trkpt lat="50.66577" lon="13.4861">
        <ele>650.0</ele>
        <time>2010-01-01T03:06:38.694Z</time>
    </trkpt>
    <trkpt lat="50.66619" lon="13.48569">
        <ele>651.0</ele>
        <time>2010-01-01T03:07:28.249Z</time>
    </trkpt>
    <trkpt lat="50.6665289" lon="13.48558366">
        <ele>655.0</ele>
        <time>2010-01-01T03:08:02.787Z</time>
    </trkpt>
    <trkpt lat="50.66693352" lon="13.48553001">
        <ele>659.0</ele>
        <time>2010-01-01T03:08:43.331Z</time>
    </trkpt>
    <trkpt lat="50.66745" lon="13.48554">
        <ele>662.0</ele>
        <time>2010-01-01T03:09:35.138Z</time>
    </trkpt>
    <trkpt lat="50.66773254" lon="13.48560512">
        <ele>663.0</ele>
        <time>2010-01-01T03:10:03.669Z</time>
    </trkpt>
    <trkpt lat="50.66831" lon="13.48591">
        <ele>669.0</ele>
        <time>2010-01-01T03:11:04.486Z</time>
    </trkpt>
    <trkpt lat="50.66884094" lon="13.48642051">
        <ele>672.0</ele>
        <time>2010-01-01T03:12:06.805Z</time>
    </trkpt>
    <trkpt lat="50.66927" lon="13.48689">
        <ele>676.0</ele>
        <time>2010-01-01T03:12:59.363Z</time>
    </trkpt>
    <trkpt lat="50.66963653" lon="13.48760068">
        <ele>681.0</ele>
        <time>2010-01-01T03:13:57.928Z</time>
    </trkpt>
    <trkpt lat="50.67052" lon="13.48924">
        <ele>687.0</ele>
        <time>2010-01-01T03:16:14.581Z</time>
    </trkpt>
    <trkpt lat="50.6706565" lon="13.48939239">
        <ele>686.0</ele>
        <time>2010-01-01T03:16:31.098Z</time>
    </trkpt>
    <trkpt lat="50.67077" lon="13.48935">
        <ele>684.0</ele>
        <time>2010-01-01T03:16:42.359Z</time>
    </trkpt>
    <trkpt lat="50.67098628" lon="13.48912417">
        <ele>682.0</ele>
        <time>2010-01-01T03:17:08.637Z</time>
    </trkpt>
    <trkpt lat="50.67118687" lon="13.4888345">
        <ele>681.0</ele>
        <time>2010-01-01T03:17:35.666Z</time>
    </trkpt>
    <trkpt lat="50.67147" lon="13.48836">
        <ele>678.0</ele>
        <time>2010-01-01T03:18:16.961Z</time>
    </trkpt>
    <trkpt lat="50.67174104" lon="13.48815321">
        <ele>678.0</ele>
        <time>2010-01-01T03:18:47.744Z</time>
    </trkpt>
    <trkpt lat="50.67202" lon="13.48788">
        <ele>677.0</ele>
        <time>2010-01-01T03:19:20.029Z</time>
    </trkpt>
    <trkpt lat="50.6722544" lon="13.48774552">
        <ele>677.0</ele>
        <time>2010-01-01T03:19:45.556Z</time>
    </trkpt>
    <trkpt lat="50.673" lon="13.48752">
        <ele>675.0</ele>
        <time>2010-01-01T03:21:01.390Z</time>
    </trkpt>
    <trkpt lat="50.6733457" lon="13.48743975">
        <ele>674.0</ele>
        <time>2010-01-01T03:21:36.679Z</time>
    </trkpt>
    <trkpt lat="50.67361427" lon="13.48752558">
        <ele>674.0</ele>
        <time>2010-01-01T03:22:03.708Z</time>
    </trkpt>
    <trkpt lat="50.6738" lon="13.48746">
        <ele>674.0</ele>
        <time>2010-01-01T03:22:23.229Z</time>
    </trkpt>
    <trkpt lat="50.67411741" lon="13.48696768">
        <ele>671.0</ele>
        <time>2010-01-01T03:23:07.528Z</time>
    </trkpt>
    <trkpt lat="50.67435198" lon="13.48522961">
        <ele>662.0</ele>
        <time>2010-01-01T03:25:00.154Z</time>
    </trkpt>
    <trkpt lat="50.67448117" lon="13.48455905">
        <ele>657.0</ele>
        <time>2010-01-01T03:25:44.453Z</time>
    </trkpt>
    <trkpt lat="50.67469534" lon="13.48419427">
        <ele>654.0</ele>
        <time>2010-01-01T03:26:16.738Z</time>
    </trkpt>
    <trkpt lat="50.67482792" lon="13.48403334">
        <ele>653.0</ele>
        <time>2010-01-01T03:26:33.255Z</time>
    </trkpt>
    <trkpt lat="50.67499" lon="13.48391">
        <ele>652.0</ele>
        <time>2010-01-01T03:26:51.274Z</time>
    </trkpt>
    <trkpt lat="50.67542284" lon="13.4836632">
        <ele>646.0</ele>
        <time>2010-01-01T03:27:37.074Z</time>
    </trkpt>
    <trkpt lat="50.676" lon="13.48324">
        <ele>637.0</ele>
        <time>2010-01-01T03:28:40.895Z</time>
    </trkpt>
    <trkpt lat="50.67625" lon="13.48321">
        <ele>635.0</ele>
        <time>2010-01-01T03:29:06.422Z</time>
    </trkpt>
    <trkpt lat="50.67673503" lon="13.48324477">
        <ele>631.0</ele>
        <time>2010-01-01T03:29:54.475Z</time>
    </trkpt>
    <trkpt lat="50.67696" lon="13.48323">
        <ele>631.0</ele>
        <time>2010-01-01T03:30:16.999Z</time>
    </trkpt>
    <trkpt lat="50.67718375" lon="13.48372757">
        <ele>636.0</ele>
        <time>2010-01-01T03:30:56.042Z</time>
    </trkpt>
    <trkpt lat="50.67770045" lon="13.484205">
        <ele>641.0</ele>
        <time>2010-01-01T03:31:56.109Z</time>
    </trkpt>
    <trkpt lat="50.67805" lon="13.48458">
        <ele>644.0</ele>
        <time>2010-01-01T03:32:38.155Z</time>
    </trkpt>
    <trkpt lat="50.67855707" lon="13.48523497">
        <ele>646.0</ele>
        <time>2010-01-01T03:33:44.228Z</time>
    </trkpt>
    <trkpt lat="50.67904657" lon="13.4857285">
        <ele>641.0</ele>
        <time>2010-01-01T03:34:42.042Z</time>
    </trkpt>
    <trkpt lat="50.67943748" lon="13.48624885">
        <ele>641.0</ele>
        <time>2010-01-01T03:35:33.849Z</time>
    </trkpt>
    </trkseg>
</trk>
</gpx>